Decoded Metar for KLUX (LAURENS CTY in SC, USA) (IATA:LUX) | Meteo·Mobile Aviation Weather
aviador You're here:

KLUX Decoded Metar

LAURENS CTY in SC, USA
Report Time2018-09-20 01:55:00
UTC Time2018-09-20 02:14:10
Flight Rules vfr VFR
WindCalm
Visibility9999 m
Phenomena:N/A
Clouds:N/A
Expected CloudBase > 800 ft AGL from Temp-Dew spread
CeilingNone
Temp23°C (ISA +9)
Dew Point21°C (89% RH)
QNH1017 hPa
Density Alt1,985 ft
Elevation699 ft
Report Wrong Elevation
Raw Report
KLUX 200155Z AUTO 00000KT 10SM CLR 23/21 A3003 RMK AO2=

Extra information for KLUX:More info

Metar Taf Metar & Taf Last 4 Metars F.Rules Stats Wind Profile Meteogram Temp Stats Airport Information Weather charts Add Link Nearby VenuesMetar ALERT Operation Metar Decoded Social comments

AIRNAV info for KLUX